Terminal Aerodrome Forecast
Issued by NWS

Home | Current Version | Previous Version | Text Only | Print | Product List | Glossary On
Versions: 1 2 3 4 5 6 7 8 9 10 11 12 13 14 15 16 17 18 19 20 21 22
000
FTUS41 KPBZ 211700
TAFLBE
TAF
KLBE 211739Z 2118/2218 24010KT P6SM VCTS SCT010 BKN040CB
     FM220200 VRB04KT P6SM SCT040
     FM220600 VRB03KT 4SM BR SCT040 BKN080
     FM221400 23004KT P6SM BKN040=

USA.gov is the U.S. government's official web portal to all federal, state and local government web resources and services.